createdAt,value
2019-04-09T00:00:02.081Z,101218.58
2019-04-09T00:02:42.816Z,101225.21
2019-04-09T00:05:12.802Z,101220.64
2019-04-09T00:07:54.431Z,101224.39
2019-04-09T00:10:15.317Z,101224.00
2019-04-09T00:12:45.419Z,101221.84
2019-04-09T00:15:15.666Z,101216.59
2019-04-09T00:17:46.576Z,101220.50
2019-04-09T00:20:18.533Z,101221.09
2019-04-09T00:22:48.890Z,101217.36
2019-04-09T00:25:18.647Z,101222.86
2019-04-09T00:27:48.193Z,101222.89
2019-04-09T00:30:17.785Z,101226.05
2019-04-09T00:32:47.394Z,101227.77
2019-04-09T00:35:16.998Z,101230.77
2019-04-09T00:37:47.624Z,101224.23
2019-04-09T00:40:17.641Z,101225.95
2019-04-09T00:42:47.776Z,101228.73
2019-04-09T00:45:17.858Z,101226.89
2019-04-09T00:47:47.762Z,101231.08
2019-04-09T00:50:17.391Z,101231.13
2019-04-09T00:52:46.989Z,101231.80
2019-04-09T00:55:16.860Z,101228.88
2019-04-09T00:57:47.390Z,101239.08
2019-04-09T01:00:19.155Z,101237.52
2019-04-09T01:02:49.431Z,101231.58
2019-04-09T01:05:19.602Z,101238.22
2019-04-09T01:07:49.745Z,101238.41
2019-04-09T01:10:19.428Z,101237.64
2019-04-09T01:12:51.880Z,101231.34
2019-04-09T01:15:20.428Z,101237.95
2019-04-09T01:17:50.622Z,101246.53
2019-04-09T01:20:21.014Z,101245.62
2019-04-09T01:22:51.131Z,101240.87
2019-04-09T01:25:39.255Z,101243.16
2019-04-09T01:28:10.839Z,101241.95
2019-04-09T01:30:51.275Z,101245.59
2019-04-09T01:33:38.672Z,101251.94
2019-04-09T01:36:17.032Z,101245.76
2019-04-09T01:38:52.101Z,101246.89
2019-04-09T01:41:25.476Z,101249.06
2019-04-09T01:43:56.771Z,101245.76
2019-04-09T01:46:31.018Z,101245.33
2019-04-09T01:49:17.243Z,101248.91
2019-04-09T01:51:47.127Z,101251.03
2019-04-09T01:54:36.354Z,101256.38
2019-04-09T01:57:05.806Z,101256.31
2019-04-09T01:59:39.768Z,101261.02
2019-04-09T02:02:11.206Z,101261.70
2019-04-09T02:04:58.584Z,101255.97
2019-04-09T02:07:39.046Z,101257.50
2019-04-09T02:10:10.931Z,101260.40
2019-04-09T02:12:42.694Z,101262.25
2019-04-09T02:15:17.765Z,101264.95
2019-04-09T02:17:47.067Z,101266.70
2019-04-09T02:20:31.292Z,101272.11
2019-04-09T02:23:03.092Z,101270.39
2019-04-09T02:25:34.569Z,101273.35
2019-04-09T02:28:08.943Z,101282.06
2019-04-09T02:30:48.065Z,101273.86
2019-04-09T02:33:21.434Z,101275.44
2019-04-09T02:35:59.785Z,101276.33
2019-04-09T02:38:34.563Z,101276.44
2019-04-09T02:41:21.162Z,101266.42
2019-04-09T02:44:08.663Z,101277.19
2019-04-09T02:46:42.866Z,101272.30
2019-04-09T02:49:14.700Z,101273.65
2019-04-09T02:51:56.908Z,101272.16
2019-04-09T02:54:27.275Z,101277.19
2019-04-09T02:57:14.769Z,101274.13
2019-04-09T03:00:03.418Z,101270.96
2019-04-09T03:02:44.021Z,101273.89
2019-04-09T03:05:18.295Z,101275.12
2019-04-09T03:07:50.197Z,101272.18
2019-04-09T03:10:34.006Z,101273.28
2019-04-09T03:13:06.378Z,101274.73
2019-04-09T03:15:36.091Z,101284.52
2019-04-09T03:18:24.960Z,101277.55
2019-04-09T03:21:08.574Z,101273.99
2019-04-09T03:23:58.275Z,101272.16
2019-04-09T03:26:27.658Z,101266.80
2019-04-09T03:29:02.852Z,101266.06
2019-04-09T03:34:20.543Z,101275.45
2019-04-09T03:37:08.402Z,101274.48
2019-04-09T03:39:46.883Z,101270.68
2019-04-09T03:42:18.601Z,101278.34
2019-04-09T03:44:53.816Z,101270.20
2019-04-09T03:47:23.174Z,101286.10
2019-04-09T03:50:12.900Z,101283.55
2019-04-09T03:52:51.722Z,101278.91
2019-04-09T03:55:40.741Z,101289.53
2019-04-09T03:58:19.086Z,101285.98
2019-04-09T04:00:47.723Z,101287.92
2019-04-09T04:03:30.652Z,101288.39
2019-04-09T04:06:11.665Z,101294.53
2019-04-09T04:08:42.925Z,101293.04
2019-04-09T04:11:23.266Z,101295.59
2019-04-09T04:13:53.557Z,101299.50
2019-04-09T04:16:24.118Z,101295.79
2019-04-09T04:19:11.905Z,101290.48
2019-04-09T04:21:52.499Z,101294.48
2019-04-09T04:24:26.672Z,101298.61
2019-04-09T04:27:14.207Z,101305.14
2019-04-09T04:29:45.942Z,101314.38
2019-04-09T04:32:23.097Z,101305.45
2019-04-09T04:35:10.179Z,101311.32
2019-04-09T04:37:47.395Z,101307.34
2019-04-09T04:40:21.996Z,101317.06
2019-04-09T04:42:55.153Z,101312.02
2019-04-09T04:45:29.198Z,101309.77
2019-04-09T04:48:09.477Z,101314.23
2019-04-09T04:50:41.758Z,101316.23
2019-04-09T04:53:13.273Z,101322.28
2019-04-09T04:55:49.417Z,101318.34
2019-04-09T04:58:20.612Z,101326.46
2019-04-09T05:00:57.595Z,101324.13
2019-04-09T05:03:36.084Z,101325.50
2019-04-09T05:06:19.965Z,101327.06
2019-04-09T05:09:02.827Z,101322.05
2019-04-09T05:11:33.281Z,101331.77
2019-04-09T05:14:17.133Z,101331.97
2019-04-09T05:16:48.851Z,101329.09
2019-04-09T05:19:36.170Z,101331.55
2019-04-09T05:22:17.003Z,101336.69
2019-04-09T05:24:46.980Z,101339.82
2019-04-09T05:27:27.287Z,101351.23
2019-04-09T05:30:02.612Z,101349.89
2019-04-09T05:32:50.021Z,101354.05
2019-04-09T05:35:37.418Z,101353.68
2019-04-09T05:38:11.442Z,101359.30
2019-04-09T05:41:00.086Z,101363.56
2019-04-09T05:43:48.090Z,101362.88
2019-04-09T05:46:19.575Z,101363.96
2019-04-09T05:49:11.854Z,101363.86
2019-04-09T05:51:45.977Z,101364.11
2019-04-09T05:54:33.651Z,101360.56
2019-04-09T05:57:21.978Z,101363.13
2019-04-09T05:59:59.800Z,101358.84
2019-04-09T06:02:31.785Z,101362.73
2019-04-09T06:05:02.625Z,101363.73
2019-04-09T06:07:53.475Z,101366.77
2019-04-09T06:10:23.961Z,101377.90
2019-04-09T06:12:53.728Z,101367.86
2019-04-09T06:15:23.695Z,101377.14
2019-04-09T06:17:54.014Z,101372.44
2019-04-09T06:20:25.656Z,101370.36
2019-04-09T06:22:55.209Z,101369.60
2019-04-09T06:25:25.850Z,101372.89
2019-04-09T06:27:55.781Z,101372.99
2019-04-09T06:30:27.114Z,101365.12
2019-04-09T06:32:59.617Z,101371.39
2019-04-09T06:35:31.944Z,101373.38
2019-04-09T06:38:19.531Z,101366.64
2019-04-09T06:40:55.253Z,101375.14
2019-04-09T06:43:30.406Z,101374.65
2019-04-09T06:45:59.835Z,101368.70
2019-04-09T06:48:34.158Z,101376.17
2019-04-09T06:51:08.277Z,101367.03
2019-04-09T06:53:37.576Z,101378.37
2019-04-09T06:56:15.981Z,101379.81
2019-04-09T06:58:55.984Z,101387.39
2019-04-09T07:01:35.815Z,101374.12
2019-04-09T07:04:23.750Z,101380.06
2019-04-09T07:07:01.836Z,101376.20
2019-04-09T07:09:51.688Z,101371.41
2019-04-09T07:12:23.012Z,101372.72
2019-04-09T07:14:55.219Z,101366.16
2019-04-09T07:17:31.584Z,101369.94
2019-04-09T07:20:19.963Z,101372.73
2019-04-09T07:22:55.819Z,101372.69
2019-04-09T07:25:27.883Z,101370.98
2019-04-09T07:27:58.122Z,101375.24
2019-04-09T07:30:32.212Z,101370.81
2019-04-09T07:33:11.244Z,101365.81
2019-04-09T07:35:50.652Z,101360.65
2019-04-09T07:38:22.586Z,101357.41
2019-04-09T07:41:06.185Z,101364.91
2019-04-09T07:43:38.955Z,101364.01
2019-04-09T07:46:32.217Z,101363.80
2019-04-09T07:49:03.822Z,101357.52
2019-04-09T07:51:52.187Z,101360.42
2019-04-09T07:54:46.002Z,101362.50
2019-04-09T07:57:19.809Z,101360.79
2019-04-09T08:00:01.946Z,101357.23
2019-04-09T08:02:30.558Z,101359.91
2019-04-09T08:05:18.006Z,101364.97
2019-04-09T08:07:59.591Z,101368.01
2019-04-09T08:10:31.152Z,101365.43
2019-04-09T08:13:06.464Z,101364.33
2019-04-09T08:15:53.900Z,101365.97
2019-04-09T08:18:33.597Z,101367.48
2019-04-09T08:21:12.389Z,101370.88
2019-04-09T08:24:02.018Z,101367.66
2019-04-09T08:26:48.860Z,101365.20
2019-04-09T08:29:40.066Z,101372.72
2019-04-09T08:32:29.371Z,101369.72
2019-04-09T08:35:13.916Z,101371.32
2019-04-09T08:37:56.699Z,101377.14
2019-04-09T08:40:27.391Z,101367.50
2019-04-09T08:43:05.263Z,101372.84
2019-04-09T08:45:53.610Z,101380.03
2019-04-09T08:48:41.214Z,101377.06
2019-04-09T08:51:20.960Z,101370.62
2019-04-09T08:54:02.515Z,101373.93
2019-04-09T08:56:44.598Z,101371.88
2019-04-09T08:59:34.730Z,101375.31
2019-04-09T09:02:16.783Z,101377.89
2019-04-09T09:04:54.181Z,101381.28
2019-04-09T09:09:57.484Z,101387.45
2019-04-09T09:15:25.049Z,101379.13
2019-04-09T09:18:01.408Z,101378.12
2019-04-09T09:20:50.341Z,101372.05
2019-04-09T09:23:22.318Z,101376.30
2019-04-09T09:26:09.471Z,101373.02
2019-04-09T09:28:57.633Z,101366.52
2019-04-09T09:31:33.975Z,101366.83
2019-04-09T09:34:06.551Z,101356.89
2019-04-09T09:36:45.800Z,101359.96
2019-04-09T09:39:18.669Z,101353.06
2019-04-09T09:42:06.639Z,101353.36
2019-04-09T09:44:43.873Z,101364.70
2019-04-09T09:47:22.771Z,101365.64
2019-04-09T09:50:07.022Z,101359.96
2019-04-09T09:52:52.914Z,101356.36
2019-04-09T09:55:37.067Z,101354.41
2019-04-09T09:58:24.610Z,101346.33
2019-04-09T10:01:06.361Z,101343.95
2019-04-09T10:03:29.266Z,101341.59
2019-04-09T10:06:05.815Z,101345.87
2019-04-09T10:08:52.180Z,101341.56
2019-04-09T10:11:37.510Z,101350.86
2019-04-09T10:14:07.692Z,101347.73
2019-04-09T10:16:54.070Z,101342.67
2019-04-09T10:19:28.498Z,101346.30
2019-04-09T10:22:20.612Z,101338.78
2019-04-09T10:24:52.967Z,101336.38
2019-04-09T10:27:39.271Z,101337.67
2019-04-09T10:30:27.750Z,101332.70
2019-04-09T10:33:02.603Z,101335.83
2019-04-09T10:35:35.552Z,101335.66
2019-04-09T10:38:17.009Z,101331.63
2019-04-09T10:40:50.497Z,101328.72
2019-04-09T10:43:26.184Z,101321.41
2019-04-09T10:46:01.010Z,101322.13
2019-04-09T10:48:32.484Z,101328.42
2019-04-09T10:51:06.474Z,101315.98
2019-04-09T10:53:37.599Z,101318.20
2019-04-09T10:56:19.319Z,101315.98
2019-04-09T10:58:54.070Z,101317.62
2019-04-09T11:01:42.270Z,101330.45
2019-04-09T11:04:13.546Z,101322.13
2019-04-09T11:07:03.198Z,101311.11
2019-04-09T11:09:32.650Z,101320.31
2019-04-09T11:12:04.696Z,101310.84
2019-04-09T11:14:43.012Z,101316.80
2019-04-09T11:17:29.061Z,101324.87
2019-04-09T11:20:10.864Z,101321.05
2019-04-09T11:22:55.258Z,101323.83
2019-04-09T11:25:28.118Z,101324.03
2019-04-09T11:28:02.205Z,101327.88
2019-04-09T11:30:36.180Z,101326.91
2019-04-09T11:33:09.378Z,101313.05
2019-04-09T11:35:56.836Z,101326.57
2019-04-09T11:38:26.255Z,101334.70
2019-04-09T11:41:10.680Z,101338.43
2019-04-09T11:43:56.285Z,101337.34
2019-04-09T11:46:38.845Z,101326.91
2019-04-09T11:49:10.052Z,101332.98
2019-04-09T11:51:54.221Z,101329.59
2019-04-09T11:54:32.436Z,101328.00
2019-04-09T11:57:22.794Z,101328.19
2019-04-09T11:59:57.413Z,101333.12
2019-04-09T12:02:33.229Z,101333.72
2019-04-09T12:05:07.972Z,101326.36
2019-04-09T12:07:42.223Z,101324.13
2019-04-09T12:10:18.527Z,101325.28
2019-04-09T12:12:51.796Z,101323.98
2019-04-09T12:15:23.273Z,101333.81
2019-04-09T12:18:07.369Z,101320.41
2019-04-09T12:20:55.024Z,101322.92
2019-04-09T12:23:32.242Z,101318.97
2019-04-09T12:26:04.310Z,101324.70
2019-04-09T12:28:42.108Z,101315.17
2019-04-09T12:31:12.118Z,101319.41
2019-04-09T12:33:58.477Z,101323.70
2019-04-09T12:36:45.547Z,101316.55
2019-04-09T12:39:36.678Z,101323.75
2019-04-09T12:42:10.591Z,101324.29
2019-04-09T12:44:40.186Z,101320.24
2019-04-09T12:47:17.688Z,101317.48
2019-04-09T12:49:51.818Z,101321.09
2019-04-09T12:52:42.056Z,101317.52
2019-04-09T12:55:19.497Z,101316.06
2019-04-09T12:57:54.392Z,101316.42
2019-04-09T13:00:28.766Z,101313.53
2019-04-09T13:02:58.225Z,101308.05
2019-04-09T13:05:32.229Z,101312.21
2019-04-09T13:08:19.840Z,101305.85
2019-04-09T13:11:07.090Z,101319.11
2019-04-09T13:13:55.153Z,101313.91
2019-04-09T13:16:43.351Z,101310.34
2019-04-09T13:19:15.614Z,101306.88
2019-04-09T13:21:49.569Z,101311.87
2019-04-09T13:24:27.338Z,101312.55
2019-04-09T13:27:02.613Z,101314.58
2019-04-09T13:29:52.228Z,101323.23
2019-04-09T13:32:37.341Z,101321.19
2019-04-09T13:35:03.830Z,101316.31
2019-04-09T13:37:41.261Z,101308.61
2019-04-09T13:40:16.753Z,101312.53
2019-04-09T13:42:51.172Z,101308.33
2019-04-09T13:45:23.951Z,101308.95
2019-04-09T13:47:55.401Z,101314.94
2019-04-09T13:50:24.867Z,101315.45
2019-04-09T13:52:56.600Z,101320.22
2019-04-09T13:55:26.180Z,101315.13
2019-04-09T13:57:56.250Z,101305.75
2019-04-09T14:00:29.232Z,101320.00
2019-04-09T14:03:26.149Z,101317.30
2019-04-09T14:05:43.600Z,101317.12
2019-04-09T14:08:13.184Z,101309.20
2019-04-09T14:10:47.908Z,101294.20
2019-04-09T14:13:14.108Z,101303.50
2019-04-09T14:15:44.692Z,101303.52
2019-04-09T14:18:14.524Z,101309.70
2019-04-09T14:20:45.330Z,101306.91
2019-04-09T14:23:15.424Z,101305.66
2019-04-09T14:25:45.455Z,101303.97
2019-04-09T14:28:15.478Z,101303.34
2019-04-09T14:30:45.416Z,101303.52
2019-04-09T14:33:14.917Z,101297.70
2019-04-09T14:35:44.503Z,101300.63
2019-04-09T14:38:14.132Z,101298.70
2019-04-09T14:40:43.976Z,101304.18
2019-04-09T14:43:15.007Z,101302.75
2019-04-09T14:45:44.930Z,101294.27
2019-04-09T14:48:15.026Z,101300.39
2019-04-09T14:50:44.736Z,101297.38
2019-04-09T14:53:15.034Z,101297.76
2019-04-09T14:55:44.962Z,101305.02
2019-04-09T14:58:15.159Z,101291.95
2019-04-09T15:00:45.619Z,101291.98
2019-04-09T15:03:24.245Z,101293.42
2019-04-09T15:05:47.591Z,101290.06
2019-04-09T15:08:17.535Z,101285.12
2019-04-09T15:10:47.215Z,101292.79
2019-04-09T15:13:19.871Z,101292.23
2019-04-09T15:15:49.488Z,101293.98
2019-04-09T15:18:19.662Z,101286.72
2019-04-09T15:21:08.426Z,101284.86
2019-04-09T15:23:38.773Z,101284.83
2019-04-09T15:26:09.653Z,101291.86
2019-04-09T15:28:39.920Z,101286.45
2019-04-09T15:31:10.627Z,101277.08
2019-04-09T15:33:41.068Z,101280.81
2019-04-09T15:36:11.552Z,101281.52
2019-04-09T15:38:41.323Z,101281.28
2019-04-09T15:41:11.247Z,101277.66
2019-04-09T15:43:44.948Z,101270.67
2019-04-09T15:46:15.087Z,101275.83
2019-04-09T15:48:45.391Z,101269.41
2019-04-09T15:51:15.886Z,101275.34
2019-04-09T15:53:47.015Z,101276.80
2019-04-09T15:56:18.860Z,101263.66
2019-04-09T15:58:48.917Z,101270.19
2019-04-09T16:01:19.141Z,101268.24
2019-04-09T16:03:55.421Z,101264.05
2019-04-09T16:06:21.650Z,101267.14
2019-04-09T16:08:51.658Z,101268.62
2019-04-09T16:11:22.418Z,101267.86
2019-04-09T16:13:53.703Z,101266.03
2019-04-09T16:16:23.547Z,101271.80
2019-04-09T16:18:53.303Z,101268.94
2019-04-09T16:21:23.414Z,101272.34
2019-04-09T16:23:52.923Z,101279.31
2019-04-09T16:26:22.561Z,101279.32
2019-04-09T16:28:52.142Z,101281.36
2019-04-09T16:31:22.302Z,101285.44
2019-04-09T16:33:59.111Z,101280.34
2019-04-09T16:36:29.976Z,101277.77
2019-04-09T16:39:02.014Z,101275.58
2019-04-09T16:41:32.048Z,101276.22
2019-04-09T16:44:01.936Z,101278.23
2019-04-09T16:46:32.695Z,101281.95
2019-04-09T16:49:02.722Z,101286.09
2019-04-09T16:51:33.361Z,101285.23
2019-04-09T16:54:04.079Z,101278.27
2019-04-09T16:56:36.581Z,101280.63
2019-04-09T16:59:06.256Z,101288.06
2019-04-09T17:01:36.007Z,101287.61
2019-04-09T17:04:18.471Z,101277.51
2019-04-09T17:06:37.793Z,101285.39
2019-04-09T17:09:24.541Z,101287.70
2019-04-09T17:11:42.227Z,101284.72
2019-04-09T17:14:11.889Z,101283.30
2019-04-09T17:16:46.822Z,101288.52
2019-04-09T17:19:17.224Z,101291.59
2019-04-09T17:21:47.803Z,101297.58
2019-04-09T17:24:18.648Z,101297.45
2019-04-09T17:26:50.645Z,101290.23
2019-04-09T17:29:21.181Z,101303.02
2019-04-09T17:31:51.075Z,101306.64
2019-04-09T17:34:27.621Z,101301.56
2019-04-09T17:36:52.462Z,101311.53
2019-04-09T17:39:22.174Z,101310.98
2019-04-09T17:42:14.475Z,101309.81
2019-04-09T17:44:44.309Z,101317.69
2019-04-09T17:47:14.086Z,101316.48
2019-04-09T17:49:47.059Z,101323.42
2019-04-09T17:52:17.074Z,101330.05
2019-04-09T17:54:46.780Z,101339.97
2019-04-09T17:57:18.232Z,101335.46
2019-04-09T17:59:48.136Z,101342.59
2019-04-09T18:02:18.266Z,101333.65
2019-04-09T18:04:52.710Z,101348.14
2019-04-09T18:07:20.221Z,101345.80
2019-04-09T18:09:50.069Z,101343.69
2019-04-09T18:12:20.938Z,101355.55
2019-04-09T18:14:53.553Z,101350.12
2019-04-09T18:17:23.254Z,101365.30
2019-04-09T18:19:53.041Z,101362.28
2019-04-09T18:22:24.829Z,101363.03
2019-04-09T18:24:55.441Z,101364.27
2019-04-09T18:27:27.666Z,101369.18
2019-04-09T18:30:02.364Z,101374.64
2019-04-09T18:32:32.107Z,101373.45
2019-04-09T18:35:03.877Z,101383.17
2019-04-09T18:37:34.346Z,101382.18
2019-04-09T18:40:08.154Z,101386.52
2019-04-09T18:42:37.708Z,101388.65
2019-04-09T18:45:08.028Z,101385.73
2019-04-09T18:47:38.207Z,101395.12
2019-04-09T18:50:10.663Z,101400.86
2019-04-09T18:52:40.679Z,101402.91
2019-04-09T18:55:11.286Z,101404.48
2019-04-09T18:57:41.909Z,101407.23
2019-04-09T19:00:13.883Z,101412.96
2019-04-09T19:02:45.193Z,101410.16
2019-04-09T19:05:17.124Z,101420.83
2019-04-09T19:07:48.042Z,101418.62
2019-04-09T19:10:18.823Z,101422.08
2019-04-09T19:12:48.952Z,101425.30
2019-04-09T19:15:18.971Z,101429.25
2019-04-09T19:17:49.274Z,101429.03
2019-04-09T19:20:19.562Z,101436.01
2019-04-09T19:22:51.162Z,101434.88
2019-04-09T19:25:20.683Z,101434.61
2019-04-09T19:27:50.197Z,101436.23
2019-04-09T19:30:20.809Z,101438.25
2019-04-09T19:32:51.557Z,101441.36
2019-04-09T19:35:27.880Z,101437.98
2019-04-09T19:37:53.055Z,101439.56
2019-04-09T19:40:24.293Z,101439.20
2019-04-09T19:42:54.050Z,101443.25
2019-04-09T19:45:28.364Z,101438.98
2019-04-09T19:47:58.041Z,101445.70
2019-04-09T19:50:27.855Z,101448.89
2019-04-09T19:52:57.862Z,101444.95
2019-04-09T19:55:28.527Z,101447.16
2019-04-09T19:57:58.360Z,101451.91
2019-04-09T20:00:31.887Z,101448.95
2019-04-09T20:03:05.270Z,101452.35
2019-04-09T20:05:38.140Z,101454.97
2019-04-09T20:08:09.138Z,101456.03
2019-04-09T20:10:40.688Z,101452.30
2019-04-09T20:13:12.517Z,101454.94
2019-04-09T20:15:42.345Z,101453.41
2019-04-09T20:18:13.343Z,101450.62
2019-04-09T20:20:43.258Z,101456.00
2019-04-09T20:23:14.138Z,101456.96
2019-04-09T20:25:44.015Z,101464.45
2019-04-09T20:28:14.081Z,101458.83
2019-04-09T20:30:44.061Z,101461.33
2019-04-09T20:33:14.932Z,101454.31
2019-04-09T20:35:49.822Z,101463.30
2019-04-09T20:38:18.597Z,101459.45
2019-04-09T20:40:48.266Z,101460.60
2019-04-09T20:43:18.405Z,101457.63
2019-04-09T20:45:48.885Z,101456.05
2019-04-09T20:48:19.412Z,101448.53
2019-04-09T20:50:50.189Z,101451.27
2019-04-09T20:53:20.483Z,101460.53
2019-04-09T20:55:50.108Z,101460.02
2019-04-09T20:58:20.429Z,101462.91
2019-04-09T21:00:50.346Z,101463.11
2019-04-09T21:03:22.864Z,101461.70
2019-04-09T21:06:00.239Z,101462.66
2019-04-09T21:08:25.795Z,101461.92
2019-04-09T21:10:55.595Z,101457.16
2019-04-09T21:13:25.378Z,101465.33
2019-04-09T21:15:55.781Z,101458.23
2019-04-09T21:18:25.543Z,101461.57
2019-04-09T21:20:55.413Z,101462.17
2019-04-09T21:23:26.221Z,101462.31
2019-04-09T21:25:55.979Z,101466.73
2019-04-09T21:28:25.725Z,101463.52
2019-04-09T21:30:55.384Z,101461.94
2019-04-09T21:33:25.019Z,101462.66
2019-04-09T21:36:05.221Z,101458.61
2019-04-09T21:38:27.637Z,101459.38
2019-04-09T21:40:58.167Z,101467.58
2019-04-09T21:43:28.032Z,101465.60
2019-04-09T21:45:59.081Z,101468.53
2019-04-09T21:48:29.272Z,101465.84
2019-04-09T21:50:59.415Z,101468.77
2019-04-09T21:53:29.962Z,101477.37
2019-04-09T21:56:00.529Z,101479.33
2019-04-09T21:58:30.863Z,101476.41
2019-04-09T22:01:07.030Z,101480.80
2019-04-09T22:03:36.823Z,101476.51
2019-04-09T22:06:18.655Z,101474.42
2019-04-09T22:08:38.300Z,101473.33
2019-04-09T22:11:08.106Z,101483.25
2019-04-09T22:13:37.716Z,101485.58
2019-04-09T22:16:09.521Z,101489.00
2019-04-09T22:18:39.610Z,101491.95
2019-04-09T22:21:09.979Z,101486.81
2019-04-09T22:23:46.353Z,101488.27
2019-04-09T22:26:11.531Z,101487.66
2019-04-09T22:28:44.830Z,101491.95
2019-04-09T22:31:16.100Z,101488.64
2019-04-09T22:33:46.746Z,101490.59
2019-04-09T22:36:29.489Z,101492.67
2019-04-09T22:38:47.672Z,101499.05
2019-04-09T22:41:17.455Z,101490.36
2019-04-09T22:43:47.388Z,101495.00
2019-04-09T22:46:20.217Z,101491.70
2019-04-09T22:48:52.759Z,101498.91
2019-04-09T22:51:23.105Z,101499.53
2019-04-09T22:53:52.977Z,101496.59
2019-04-09T22:56:22.867Z,101496.95
2019-04-09T22:58:53.279Z,101493.66
2019-04-09T23:01:26.490Z,101495.24
2019-04-09T23:03:55.938Z,101493.77
2019-04-09T23:06:27.997Z,101494.97
2019-04-09T23:09:05.460Z,101497.00
2019-04-09T23:11:36.961Z,101481.15
2019-04-09T23:14:06.659Z,101491.41
2019-04-09T23:16:37.401Z,101487.50
2019-04-09T23:19:07.800Z,101489.06
2019-04-09T23:21:37.701Z,101486.06
2019-04-09T23:24:07.520Z,101490.78
2019-04-09T23:26:37.465Z,101490.06
2019-04-09T23:29:07.209Z,101489.58
2019-04-09T23:31:36.949Z,101488.72
2019-04-09T23:34:06.551Z,101485.41
2019-04-09T23:36:36.266Z,101490.20
2019-04-09T23:39:08.334Z,101486.74
2019-04-09T23:41:38.245Z,101491.02
2019-04-09T23:44:08.175Z,101489.70
2019-04-09T23:46:37.872Z,101487.61
2019-04-09T23:49:07.608Z,101488.83
2019-04-09T23:51:37.632Z,101484.16
2019-04-09T23:54:07.690Z,101485.47
2019-04-09T23:56:37.921Z,101474.58
2019-04-09T23:59:10.351Z,101480.09
